createdAt,value
2019-04-06T00:00:27.625Z,100316.41
2019-04-06T00:02:57.085Z,100314.27
2019-04-06T00:05:26.266Z,100314.61
2019-04-06T00:07:55.564Z,100317.69
2019-04-06T00:10:24.819Z,100318.43
2019-04-06T00:12:54.163Z,100316.76
2019-04-06T00:15:23.486Z,100326.05
2019-04-06T00:17:52.695Z,100325.69
2019-04-06T00:20:22.963Z,100326.52
2019-04-06T00:22:52.185Z,100332.94
2019-04-06T00:25:21.380Z,100344.28
2019-04-06T00:27:50.726Z,100343.60
2019-04-06T00:30:21.001Z,100350.20
2019-04-06T00:32:55.193Z,100347.72
2019-04-06T00:35:24.468Z,100346.49
2019-04-06T00:37:53.686Z,100340.91
2019-04-06T00:40:22.993Z,100361.45
2019-04-06T00:42:52.542Z,100353.38
2019-04-06T00:45:21.750Z,100345.77
2019-04-06T00:47:51.056Z,100349.47
2019-04-06T00:50:21.607Z,100344.34
2019-04-06T00:52:50.882Z,100346.77
2019-04-06T00:55:20.085Z,100341.11
2019-04-06T00:57:49.276Z,100349.29
2019-04-06T01:00:18.757Z,100344.44
2019-04-06T01:02:47.961Z,100342.39
2019-04-06T01:05:17.288Z,100350.29
2019-04-06T01:07:46.584Z,100346.87
2019-04-06T01:10:16.012Z,100337.20
2019-04-06T01:12:45.309Z,100334.42
2019-04-06T01:15:16.228Z,100335.61
2019-04-06T01:17:45.488Z,100328.94
2019-04-06T01:20:19.290Z,100324.00
2019-04-06T01:22:48.589Z,100321.23
2019-04-06T01:25:17.917Z,100314.64
2019-04-06T01:27:47.193Z,100315.47
2019-04-06T01:30:18.113Z,100304.20
2019-04-06T01:32:47.416Z,100309.14
2019-04-06T01:35:16.607Z,100300.50
2019-04-06T01:37:45.887Z,100300.77
2019-04-06T01:40:15.246Z,100303.56
2019-04-06T01:42:44.434Z,100311.83
2019-04-06T01:45:13.796Z,100298.35
2019-04-06T01:47:42.980Z,100303.74
2019-04-06T01:50:12.492Z,100300.59
2019-04-06T01:52:41.763Z,100304.67
2019-04-06T01:55:12.461Z,100301.23
2019-04-06T01:57:41.869Z,100298.18
2019-04-06T02:00:12.811Z,100297.79
2019-04-06T02:02:44.428Z,100292.14
2019-04-06T02:05:13.883Z,100290.26
2019-04-06T02:07:43.096Z,100285.52
2019-04-06T02:10:13.692Z,100290.82
2019-04-06T02:12:42.936Z,100288.60
2019-04-06T02:15:12.490Z,100284.33
2019-04-06T02:17:41.873Z,100283.33
2019-04-06T02:20:11.202Z,100287.23
2019-04-06T02:22:40.437Z,100289.34
2019-04-06T02:27:08.570Z,100279.12
2019-04-06T02:29:37.756Z,100284.41
2019-04-06T02:32:28.547Z,100278.76
2019-04-06T02:35:22.837Z,100282.09
2019-04-06T02:38:09.901Z,100291.22
2019-04-06T02:40:46.819Z,100283.78
2019-04-06T02:43:19.126Z,100290.10
2019-04-06T02:45:48.406Z,100289.91
2019-04-06T02:48:20.668Z,100292.96
2019-04-06T02:50:49.961Z,100301.33
2019-04-06T02:53:19.288Z,100295.84
2019-04-06T02:55:49.705Z,100299.19
2019-04-06T02:58:18.976Z,100298.27
2019-04-06T03:00:48.400Z,100299.74
2019-04-06T03:03:17.576Z,100302.73
2019-04-06T03:05:49.572Z,100299.00
2019-04-06T03:08:18.937Z,100297.23
2019-04-06T03:10:48.102Z,100302.64
2019-04-06T03:13:17.385Z,100307.65
2019-04-06T03:15:47.727Z,100301.80
2019-04-06T03:18:16.872Z,100301.25
2019-04-06T03:20:46.910Z,100300.42
2019-04-06T03:23:16.324Z,100298.92
2019-04-06T03:25:46.029Z,100303.86
2019-04-06T03:28:15.247Z,100303.66
2019-04-06T03:30:44.781Z,100301.97
2019-04-06T03:33:35.739Z,100296.95
2019-04-06T03:36:05.619Z,100296.67
2019-04-06T03:38:34.881Z,100296.21
2019-04-06T03:41:05.249Z,100294.45
2019-04-06T03:43:34.885Z,100286.92
2019-04-06T03:46:04.168Z,100292.67
2019-04-06T03:48:33.470Z,100302.09
2019-04-06T03:51:02.658Z,100298.72
2019-04-06T03:53:32.180Z,100298.25
2019-04-06T03:56:01.341Z,100293.23
2019-04-06T03:58:30.583Z,100297.14
2019-04-06T04:00:59.815Z,100295.38
2019-04-06T04:03:29.007Z,100298.04
2019-04-06T04:05:58.323Z,100298.13
2019-04-06T04:08:27.742Z,100297.89
2019-04-06T04:10:57.192Z,100298.63
2019-04-06T04:13:26.555Z,100298.13
2019-04-06T04:15:57.160Z,100298.91
2019-04-06T04:18:26.653Z,100301.80
2019-04-06T04:20:56.174Z,100301.95
2019-04-06T04:23:25.365Z,100301.20
2019-04-06T04:25:54.558Z,100306.16
2019-04-06T04:28:23.937Z,100307.92
2019-04-06T04:30:54.614Z,100314.06
2019-04-06T04:33:23.905Z,100313.22
2019-04-06T04:35:53.181Z,100308.30
2019-04-06T04:38:22.756Z,100306.59
2019-04-06T04:40:51.939Z,100308.11
2019-04-06T04:43:21.169Z,100311.55
2019-04-06T04:45:51.005Z,100313.84
2019-04-06T04:48:20.136Z,100303.16
2019-04-06T04:50:49.413Z,100314.80
2019-04-06T04:53:18.970Z,100311.24
2019-04-06T04:55:48.102Z,100307.80
2019-04-06T04:58:17.367Z,100308.73
2019-04-06T05:00:46.565Z,100310.03
2019-04-06T05:03:15.797Z,100307.06
2019-04-06T05:05:44.970Z,100309.75
2019-04-06T05:08:14.239Z,100311.70
2019-04-06T05:10:43.390Z,100315.70
2019-04-06T05:13:12.588Z,100314.87
2019-04-06T05:16:21.987Z,100307.34
2019-04-06T05:18:51.166Z,100301.95
2019-04-06T05:21:20.355Z,100311.98
2019-04-06T05:23:49.722Z,100313.75
2019-04-06T05:26:18.896Z,100324.91
2019-04-06T05:28:48.101Z,100326.40
2019-04-06T05:31:17.286Z,100323.89
2019-04-06T05:33:46.474Z,100325.00
2019-04-06T05:36:15.900Z,100322.09
2019-04-06T05:38:45.085Z,100327.70
2019-04-06T05:41:14.290Z,100324.87
2019-04-06T05:43:43.530Z,100324.32
2019-04-06T05:46:12.941Z,100330.92
2019-04-06T05:48:42.131Z,100333.25
2019-04-06T05:51:11.453Z,100329.53
2019-04-06T05:53:40.718Z,100330.27
2019-04-06T05:56:10.354Z,100327.20
2019-04-06T05:58:40.827Z,100329.62
2019-04-06T06:01:11.327Z,100333.25
2019-04-06T06:03:41.340Z,100339.48
2019-04-06T06:06:12.573Z,100334.73
2019-04-06T06:08:41.828Z,100335.47
2019-04-06T06:11:11.026Z,100337.24
2019-04-06T06:13:40.481Z,100337.70
2019-04-06T06:16:11.511Z,100336.56
2019-04-06T06:18:40.633Z,100340.55
2019-04-06T06:21:09.806Z,100341.39
2019-04-06T06:23:39.022Z,100337.80
2019-04-06T06:26:08.323Z,100327.89
2019-04-06T06:28:39.272Z,100333.56
2019-04-06T06:31:08.571Z,100320.19
2019-04-06T06:33:37.822Z,100328.59
2019-04-06T06:36:07.058Z,100321.23
2019-04-06T06:38:36.271Z,100328.89
2019-04-06T06:41:05.561Z,100331.70
2019-04-06T06:43:34.993Z,100331.50
2019-04-06T06:46:06.664Z,100335.64
2019-04-06T06:48:35.920Z,100331.87
2019-04-06T06:51:05.466Z,100337.98
2019-04-06T06:53:36.482Z,100330.26
2019-04-06T06:56:05.717Z,100328.72
2019-04-06T06:58:34.889Z,100332.70
2019-04-06T07:01:05.379Z,100335.11
2019-04-06T07:03:34.613Z,100340.97
2019-04-06T07:06:03.800Z,100345.48
2019-04-06T07:08:33.063Z,100348.63
2019-04-06T07:11:05.581Z,100352.91
2019-04-06T07:13:34.757Z,100361.63
2019-04-06T07:16:03.938Z,100356.31
2019-04-06T07:18:33.208Z,100355.52
2019-04-06T07:21:02.392Z,100359.35
2019-04-06T07:23:31.544Z,100353.88
2019-04-06T07:26:00.772Z,100353.48
2019-04-06T07:28:37.829Z,100353.75
2019-04-06T07:31:00.809Z,100351.41
2019-04-06T07:33:30.104Z,100350.73
2019-04-06T07:35:59.304Z,100351.27
2019-04-06T07:38:28.508Z,100356.98
2019-04-06T07:40:57.932Z,100361.20
2019-04-06T07:43:27.193Z,100353.88
2019-04-06T07:45:58.884Z,100356.39
2019-04-06T07:48:28.078Z,100354.09
2019-04-06T07:50:57.328Z,100365.08
2019-04-06T07:53:26.538Z,100360.91
2019-04-06T07:55:55.741Z,100363.19
2019-04-06T07:58:26.196Z,100362.94
2019-04-06T08:00:55.368Z,100362.21
2019-04-06T08:03:24.719Z,100360.26
2019-04-06T08:05:53.919Z,100356.47
2019-04-06T08:08:23.488Z,100358.12
2019-04-06T08:10:52.741Z,100353.31
2019-04-06T08:13:22.006Z,100355.79
2019-04-06T08:15:51.217Z,100358.61
2019-04-06T08:18:21.406Z,100355.31
2019-04-06T08:20:50.674Z,100354.09
2019-04-06T08:23:19.974Z,100347.75
2019-04-06T08:25:49.211Z,100350.68
2019-04-06T08:28:18.660Z,100349.40
2019-04-06T08:30:50.071Z,100348.28
2019-04-06T08:33:22.219Z,100343.62
2019-04-06T08:35:51.503Z,100349.70
2019-04-06T08:38:22.288Z,100344.70
2019-04-06T08:40:51.474Z,100349.67
2019-04-06T08:43:20.698Z,100349.84
2019-04-06T08:45:49.987Z,100352.47
2019-04-06T08:48:19.196Z,100357.19
2019-04-06T08:50:48.526Z,100353.09
2019-04-06T08:53:19.258Z,100355.98
2019-04-06T08:55:48.753Z,100353.03
2019-04-06T08:58:17.939Z,100357.08
2019-04-06T09:00:47.561Z,100354.31
2019-04-06T09:03:17.121Z,100359.16
2019-04-06T09:05:46.315Z,100354.20
2019-04-06T09:08:16.551Z,100354.34
2019-04-06T09:10:45.865Z,100354.01
2019-04-06T09:13:15.386Z,100355.80
2019-04-06T09:15:44.674Z,100355.32
2019-04-06T09:18:14.055Z,100352.20
2019-04-06T09:20:43.336Z,100349.42
2019-04-06T09:23:12.570Z,100349.36
2019-04-06T09:25:41.855Z,100346.68
2019-04-06T09:28:11.251Z,100336.22
2019-04-06T09:30:42.072Z,100332.21
2019-04-06T09:33:11.326Z,100328.06
2019-04-06T09:35:40.644Z,100327.11
2019-04-06T09:38:19.003Z,100324.13
2019-04-06T09:40:49.404Z,100325.18
2019-04-06T09:43:18.868Z,100317.58
2019-04-06T09:46:07.381Z,100322.45
2019-04-06T09:48:54.181Z,100319.61
2019-04-06T09:51:41.856Z,100321.98
2019-04-06T09:54:29.156Z,100313.19
2019-04-06T09:57:19.698Z,100316.17
2019-04-06T09:59:57.666Z,100321.39
2019-04-06T10:02:35.297Z,100323.60
2019-04-06T10:05:17.858Z,100323.12
2019-04-06T10:08:07.887Z,100321.63
2019-04-06T10:10:43.736Z,100319.97
2019-04-06T10:13:23.423Z,100327.42
2019-04-06T10:16:02.292Z,100324.80
2019-04-06T10:18:51.087Z,100321.66
2019-04-06T10:21:56.332Z,100321.09
2019-04-06T10:24:33.969Z,100313.19
2019-04-06T10:27:13.020Z,100316.45
2019-04-06T10:30:03.904Z,100317.88
2019-04-06T10:32:49.965Z,100318.23
2019-04-06T10:35:37.204Z,100316.33
2019-04-06T10:38:17.897Z,100317.31
2019-04-06T10:41:02.433Z,100317.23
2019-04-06T10:43:53.978Z,100313.98
2019-04-06T10:46:45.195Z,100322.91
2019-04-06T10:49:32.322Z,100319.86
2019-04-06T10:52:29.584Z,100315.96
2019-04-06T10:55:10.364Z,100319.41
2019-04-06T10:57:57.136Z,100312.70
2019-04-06T11:00:32.093Z,100314.69
2019-04-06T11:03:09.624Z,100313.08
2019-04-06T11:05:57.882Z,100314.06
2019-04-06T11:08:52.185Z,100320.59
2019-04-06T11:11:37.581Z,100318.32
2019-04-06T11:14:30.620Z,100316.66
2019-04-06T11:17:17.789Z,100315.50
2019-04-06T11:20:06.503Z,100310.30
2019-04-06T11:22:50.542Z,100314.38
2019-04-06T11:25:36.723Z,100313.22
2019-04-06T11:28:26.771Z,100300.50
2019-04-06T11:31:14.269Z,100301.25
2019-04-06T11:34:15.035Z,100305.20
2019-04-06T11:36:56.754Z,100307.70
2019-04-06T11:39:48.293Z,100301.38
2019-04-06T11:42:28.044Z,100295.22
2019-04-06T11:45:03.407Z,100283.70
2019-04-06T11:47:54.236Z,100289.27
2019-04-06T11:50:45.503Z,100288.00
2019-04-06T11:53:36.395Z,100292.12
2019-04-06T11:56:22.909Z,100280.80
2019-04-06T11:59:29.334Z,100286.16
2019-04-06T12:02:23.441Z,100283.02
2019-04-06T12:05:02.709Z,100284.20
2019-04-06T12:07:53.616Z,100286.77
2019-04-06T12:10:28.336Z,100281.89
2019-04-06T12:13:15.650Z,100286.63
2019-04-06T12:15:55.196Z,100282.29
2019-04-06T12:18:49.513Z,100284.67
2019-04-06T12:21:53.897Z,100287.27
2019-04-06T12:24:42.283Z,100278.05
2019-04-06T12:27:21.946Z,100279.33
2019-04-06T12:30:36.938Z,100276.91
2019-04-06T12:33:13.384Z,100277.20
2019-04-06T12:36:16.914Z,100279.19
2019-04-06T12:39:10.949Z,100269.33
2019-04-06T12:42:02.607Z,100279.19
2019-04-06T12:44:49.741Z,100274.61
2019-04-06T12:47:38.312Z,100277.41
2019-04-06T12:50:37.515Z,100278.98
2019-04-06T12:53:19.516Z,100279.09
2019-04-06T12:56:06.220Z,100280.00
2019-04-06T12:59:04.297Z,100272.72
2019-04-06T13:01:52.494Z,100271.05
2019-04-06T13:04:40.512Z,100278.83
2019-04-06T13:07:43.766Z,100277.55
2019-04-06T13:10:25.905Z,100270.20
2019-04-06T13:13:17.152Z,100280.48
2019-04-06T13:15:51.957Z,100271.63
2019-04-06T13:18:40.094Z,100272.88
2019-04-06T13:21:26.979Z,100279.83
2019-04-06T13:24:05.352Z,100273.69
2019-04-06T13:26:42.204Z,100270.73
2019-04-06T13:29:36.239Z,100277.27
2019-04-06T13:32:27.631Z,100272.07
2019-04-06T13:35:16.144Z,100274.95
2019-04-06T13:38:15.083Z,100269.17
2019-04-06T13:41:07.724Z,100274.69
2019-04-06T13:43:42.719Z,100271.77
2019-04-06T13:46:27.423Z,100268.25
2019-04-06T13:49:18.856Z,100272.11
2019-04-06T13:52:12.463Z,100268.27
2019-04-06T13:54:55.697Z,100264.43
2019-04-06T13:57:43.798Z,100266.72
2019-04-06T14:00:50.572Z,100257.84
2019-04-06T14:03:36.863Z,100264.89
2019-04-06T14:06:23.835Z,100259.08
2019-04-06T14:09:29.887Z,100263.52
2019-04-06T14:12:07.633Z,100267.87
2019-04-06T14:14:51.123Z,100263.95
2019-04-06T14:17:57.700Z,100263.67
2019-04-06T14:20:36.808Z,100263.28
2019-04-06T14:23:22.945Z,100255.18
2019-04-06T14:26:10.132Z,100260.29
2019-04-06T14:28:50.542Z,100260.20
2019-04-06T14:31:35.814Z,100263.30
2019-04-06T14:34:36.189Z,100265.27
2019-04-06T14:37:23.320Z,100257.69
2019-04-06T14:40:10.589Z,100255.68
2019-04-06T14:43:05.086Z,100256.92
2019-04-06T14:46:00.431Z,100262.41
2019-04-06T14:48:51.456Z,100258.95
2019-04-06T14:51:32.137Z,100257.02
2019-04-06T14:54:08.189Z,100256.59
2019-04-06T14:56:53.587Z,100256.93
2019-04-06T14:59:47.531Z,100264.10
2019-04-06T15:02:32.694Z,100261.15
2019-04-06T15:05:33.539Z,100248.03
2019-04-06T15:08:27.935Z,100255.73
2019-04-06T15:11:25.107Z,100251.78
2019-04-06T15:14:16.423Z,100244.36
2019-04-06T15:17:00.134Z,100247.92
2019-04-06T15:19:36.954Z,100247.06
2019-04-06T15:22:19.662Z,100247.14
2019-04-06T15:25:09.237Z,100244.75
2019-04-06T15:27:44.990Z,100239.23
2019-04-06T15:30:39.631Z,100240.62
2019-04-06T15:33:34.568Z,100235.31
2019-04-06T15:36:31.957Z,100236.80
2019-04-06T15:39:26.237Z,100236.22
2019-04-06T15:42:06.968Z,100242.66
2019-04-06T15:44:56.180Z,100236.57
2019-04-06T15:47:53.339Z,100239.02
2019-04-06T15:50:40.658Z,100241.75
2019-04-06T15:53:27.474Z,100240.83
2019-04-06T15:56:14.300Z,100237.42
2019-04-06T15:59:08.409Z,100232.58
2019-04-06T16:02:01.342Z,100235.07
2019-04-06T16:04:49.164Z,100232.79
2019-04-06T16:07:36.226Z,100232.91
2019-04-06T16:10:28.285Z,100227.67
2019-04-06T16:13:34.646Z,100226.33
2019-04-06T16:16:13.356Z,100231.69
2019-04-06T16:19:04.878Z,100227.04
2019-04-06T16:21:53.273Z,100229.91
2019-04-06T16:24:39.504Z,100233.09
2019-04-06T16:27:39.917Z,100219.87
2019-04-06T16:30:37.679Z,100225.64
2019-04-06T16:33:26.193Z,100227.84
2019-04-06T16:36:23.419Z,100219.33
2019-04-06T16:39:13.149Z,100217.67
2019-04-06T16:42:07.651Z,100219.33
2019-04-06T16:44:49.190Z,100215.45
2019-04-06T16:47:27.994Z,100216.37
2019-04-06T16:50:37.963Z,100224.34
2019-04-06T16:53:25.318Z,100225.59
2019-04-06T16:56:18.974Z,100222.40
2019-04-06T16:58:54.285Z,100223.14
2019-04-06T17:01:52.416Z,100216.28
2019-04-06T17:04:29.473Z,100229.10
2019-04-06T17:07:28.536Z,100213.50
2019-04-06T17:10:20.667Z,100221.14
2019-04-06T17:13:23.666Z,100222.36
2019-04-06T17:16:18.103Z,100220.96
2019-04-06T17:19:11.315Z,100220.07
2019-04-06T17:21:55.647Z,100221.92
2019-04-06T17:24:49.676Z,100228.50
2019-04-06T17:27:40.960Z,100233.66
2019-04-06T17:30:29.173Z,100222.60
2019-04-06T17:33:13.034Z,100231.59
2019-04-06T17:35:51.846Z,100232.84
2019-04-06T17:38:40.004Z,100230.91
2019-04-06T17:41:34.128Z,100228.09
2019-04-06T17:44:20.979Z,100227.48
2019-04-06T17:47:07.872Z,100220.43
2019-04-06T17:49:59.242Z,100221.21
2019-04-06T17:52:47.465Z,100225.11
2019-04-06T17:55:34.720Z,100224.21
2019-04-06T17:58:21.763Z,100222.53
2019-04-06T18:01:10.161Z,100234.05
2019-04-06T18:03:59.336Z,100229.31
2019-04-06T18:07:02.578Z,100230.11
2019-04-06T18:09:47.123Z,100229.83
2019-04-06T18:12:23.597Z,100235.73
2019-04-06T18:14:52.982Z,100236.39
2019-04-06T18:17:22.209Z,100242.89
2019-04-06T18:19:51.965Z,100237.86
2019-04-06T18:22:21.149Z,100234.86
2019-04-06T18:24:50.330Z,100235.35
2019-04-06T18:27:19.556Z,100238.70
2019-04-06T18:29:49.290Z,100238.79
2019-04-06T18:32:35.967Z,100239.06
2019-04-06T18:35:05.416Z,100245.11
2019-04-06T18:38:02.774Z,100246.03
2019-04-06T18:40:32.964Z,100247.47
2019-04-06T18:43:03.378Z,100246.41
2019-04-06T18:45:33.550Z,100247.59
2019-04-06T18:48:02.754Z,100251.98
2019-04-06T18:50:35.974Z,100247.95
2019-04-06T18:53:03.416Z,100242.98
2019-04-06T18:55:32.756Z,100250.20
2019-04-06T18:58:10.699Z,100252.22
2019-04-06T19:00:33.551Z,100247.27
2019-04-06T19:03:12.564Z,100241.64
2019-04-06T19:05:33.902Z,100244.27
2019-04-06T19:08:03.125Z,100245.09
2019-04-06T19:10:32.629Z,100246.34
2019-04-06T19:13:02.162Z,100245.26
2019-04-06T19:15:32.062Z,100245.09
2019-04-06T19:18:02.174Z,100249.19
2019-04-06T19:20:31.955Z,100250.13
2019-04-06T19:23:01.469Z,100248.93
2019-04-06T19:25:30.797Z,100251.68
2019-04-06T19:28:00.146Z,100252.95
2019-04-06T19:30:29.708Z,100251.98
2019-04-06T19:32:59.089Z,100252.23
2019-04-06T19:35:29.206Z,100249.64
2019-04-06T19:38:00.519Z,100248.44
2019-04-06T19:40:30.292Z,100249.12
2019-04-06T19:43:00.033Z,100258.00
2019-04-06T19:45:29.331Z,100251.81
2019-04-06T19:47:58.740Z,100250.50
2019-04-06T19:50:29.014Z,100247.08
2019-04-06T19:52:58.519Z,100253.64
2019-04-06T19:55:28.120Z,100248.77
2019-04-06T19:57:57.450Z,100253.41
2019-04-06T20:00:27.260Z,100254.95
2019-04-06T20:02:56.552Z,100249.48
2019-04-06T20:05:26.321Z,100255.91
2019-04-06T20:07:55.816Z,100248.44
2019-04-06T20:10:25.218Z,100251.05
2019-04-06T20:12:54.682Z,100250.70
2019-04-06T20:15:24.326Z,100245.10
2019-04-06T20:17:53.831Z,100248.06
2019-04-06T20:20:23.261Z,100244.75
2019-04-06T20:22:52.767Z,100247.00
2019-04-06T20:25:22.061Z,100244.27
2019-04-06T20:27:51.312Z,100244.25
2019-04-06T20:30:21.661Z,100244.25
2019-04-06T20:32:51.186Z,100243.91
2019-04-06T20:35:21.205Z,100246.98
2019-04-06T20:37:50.361Z,100242.34
2019-04-06T20:40:19.709Z,100250.05
2019-04-06T20:42:49.477Z,100245.63
2019-04-06T20:45:19.223Z,100244.09
2019-04-06T20:47:48.591Z,100245.25
2019-04-06T20:50:18.010Z,100249.27
2019-04-06T20:52:47.312Z,100245.78
2019-04-06T20:55:16.692Z,100248.77
2019-04-06T20:57:46.164Z,100254.11
2019-04-06T21:00:15.523Z,100249.97
2019-04-06T21:02:45.145Z,100250.63
2019-04-06T21:05:14.810Z,100243.73
2019-04-06T21:07:44.074Z,100244.89
2019-04-06T21:10:15.786Z,100255.24
2019-04-06T21:12:44.989Z,100252.81
2019-04-06T21:15:20.018Z,100254.55
2019-04-06T21:17:46.083Z,100254.34
2019-04-06T21:20:18.387Z,100253.83
2019-04-06T21:22:47.674Z,100255.35
2019-04-06T21:25:16.915Z,100255.94
2019-04-06T21:27:46.454Z,100256.77
2019-04-06T21:30:17.349Z,100261.33
2019-04-06T21:32:48.773Z,100254.65
2019-04-06T21:35:18.117Z,100253.09
2019-04-06T21:37:47.294Z,100258.15
2019-04-06T21:40:19.773Z,100256.44
2019-04-06T21:42:49.909Z,100255.22
2019-04-06T21:45:19.671Z,100251.77
2019-04-06T21:47:49.539Z,100257.99
2019-04-06T21:50:18.874Z,100251.94
2019-04-06T21:52:49.365Z,100254.03
2019-04-06T21:55:19.486Z,100248.44
2019-04-06T21:57:48.751Z,100257.23
2019-04-06T22:00:27.800Z,100255.92
2019-04-06T22:02:56.906Z,100263.06
2019-04-06T22:05:26.245Z,100261.91
2019-04-06T22:07:56.105Z,100258.46
2019-04-06T22:10:25.337Z,100259.66
2019-04-06T22:12:54.713Z,100265.73
2019-04-06T22:15:23.944Z,100264.98
2019-04-06T22:17:53.356Z,100254.86
2019-04-06T22:20:28.065Z,100255.84
2019-04-06T22:22:57.373Z,100260.92
2019-04-06T22:25:26.516Z,100257.63
2019-04-06T22:27:55.728Z,100248.94
2019-04-06T22:30:24.858Z,100255.95
2019-04-06T22:32:54.025Z,100260.31
2019-04-06T22:35:23.247Z,100254.41
2019-04-06T22:37:54.709Z,100248.92
2019-04-06T22:40:23.873Z,100253.09
2019-04-06T22:42:53.074Z,100252.01
2019-04-06T22:45:23.208Z,100256.27
2019-04-06T22:47:52.361Z,100252.92
2019-04-06T22:50:22.056Z,100249.59
2019-04-06T22:52:51.522Z,100250.83
2019-04-06T22:55:21.003Z,100251.45
2019-04-06T22:57:50.467Z,100246.09
2019-04-06T23:00:29.587Z,100242.42
2019-04-06T23:03:16.796Z,100246.29
2019-04-06T23:05:48.964Z,100247.23
2019-04-06T23:08:18.165Z,100242.84
2019-04-06T23:10:47.581Z,100239.89
2019-04-06T23:13:17.774Z,100240.52
2019-04-06T23:15:47.991Z,100240.90
2019-04-06T23:18:18.037Z,100243.55
2019-04-06T23:20:47.555Z,100243.96
2019-04-06T23:23:16.702Z,100241.14
2019-04-06T23:25:46.453Z,100242.25
2019-04-06T23:28:15.993Z,100235.03
2019-04-06T23:30:45.315Z,100237.61
2019-04-06T23:33:14.776Z,100239.95
2019-04-06T23:35:44.033Z,100240.52
2019-04-06T23:38:13.313Z,100248.67
2019-04-06T23:40:42.466Z,100232.28
2019-04-06T23:43:11.850Z,100231.59
2019-04-06T23:45:41.189Z,100228.21
2019-04-06T23:48:10.749Z,100228.47
2019-04-06T23:50:40.512Z,100223.22
2019-04-06T23:53:11.500Z,100227.84
2019-04-06T23:55:41.091Z,100224.66
2019-04-06T23:58:10.844Z,100227.17
